Observation data for Anton on 02/17/2017      Previous  Date  Next       Current Mesonet Observations  Soil Data  Daily Summary Page  Observations in Plain Language
KAOS 170600Z 18010KT 04/M00 A2985 RMK A01 T00431001  RH  074%=      5-min Rain = 0
KAOS 170605Z 18010KT 04/00 A2985 RMK A01 T00440000  RH  074%=      5-min Rain = 0
KAOS 170610Z 18010KT 05/00 A2985 RMK A01 T00450002  RH  074%=      5-min Rain = 0
KAOS 170615Z 18011KT 05/00 A2985 RMK A01 T00470003  RH  074%=      5-min Rain = 0
KAOS 170620Z 18010KT 05/00 A2985 RMK A01 T00470004  RH  074%=      5-min Rain = 0
KAOS 170625Z 19009KT 05/00 A2985 RMK A01 T00460004  RH  075%=      5-min Rain = 0
KAOS 170630Z 19010KT 05/00 A2984 RMK A01 T00470004  RH  075%=      5-min Rain = 0
KAOS 170635Z 18010KT 05/00 A2984 RMK A01 T00490004  RH  073%=      5-min Rain = 0
KAOS 170640Z 19011KT 05/00 A2984 RMK A01 T00500004  RH  073%=      5-min Rain = 0
KAOS 170645Z 19011KT 05/00 A2984 RMK A01 T00520004  RH  072%=      5-min Rain = 0
KAOS 170650Z 19010KT 05/00 A2984 RMK A01 T00520003  RH  072%=      5-min Rain = 0
KAOS 170655Z 20011KT 05/00 A2984 RMK A01 T00530003  RH  071%=      5-min Rain = 0
KAOS 170700Z 20011KT 05/00 A2984 RMK A01 T00540003  RH  070%=      5-min Rain = 0
KAOS 170705Z 21011KT 06/00 A2983 RMK A01 T00570002  RH  069%=      5-min Rain = 0
KAOS 170710Z 21011KT 06/00 A2983 RMK A01 T00590002  RH  068%=      5-min Rain = 0
KAOS 170715Z 21011KT 06/00 A2983 RMK A01 T00590001  RH  067%=      5-min Rain = 0
KAOS 170720Z 21012KT 06/00 A2983 RMK A01 T00590001  RH  067%=      5-min Rain = 0
KAOS 170725Z 21011KT 06/00 A2982 RMK A01 T00590000  RH  067%=      5-min Rain = 0
KAOS 170730Z 22013G18KT 06/00 A2982 RMK A01 T00620000  RH  066%=      5-min Rain = 0
KAOS 170735Z 21014KT 06/00 A2982 RMK A01 T00640001  RH  065%=      5-min Rain = 0
KAOS 170740Z 21013KT 07/00 A2982 RMK A01 T00650002  RH  065%=      5-min Rain = 0
KAOS 170745Z 22012KT 07/00 A2982 RMK A01 T00650003  RH  065%=      5-min Rain = 0
KAOS 170750Z 22012G17KT 06/00 A2982 RMK A01 T00630003  RH  066%=      5-min Rain = 0
KAOS 170755Z 22013KT 06/00 A2981 RMK A01 T00640003  RH  066%=      5-min Rain = 0
KAOS 170800Z 22012KT 06/00 A2981 RMK A01 T00630003  RH  066%=      5-min Rain = 0
KAOS 170805Z 22011KT 06/00 A2981 RMK A01 T00610003  RH  067%=      5-min Rain = 0
KAOS 170810Z 22010KT 06/00 A2981 RMK A01 T00580003  RH  069%=      5-min Rain = 0
KAOS 170815Z 21009KT 05/00 A2981 RMK A01 T00540002  RH  070%=      5-min Rain = 0
KAOS 170820Z 21009KT 05/00 A298 RMK A01 T00510001  RH  071%=      5-min Rain = 0
KAOS 170825Z 22009KT 05/00 A298 RMK A01 T00490001  RH  072%=      5-min Rain = 0
KAOS 170830Z 22009KT 05/00 A298 RMK A01 T00480001  RH  072%=      5-min Rain = 0
KAOS 170835Z 22008KT 05/00 A298 RMK A01 T00460001  RH  074%=      5-min Rain = 0
KAOS 170840Z 23009KT 05/00 A298 RMK A01 T00470002  RH  073%=      5-min Rain = 0
KAOS 170845Z 23008KT 05/00 A298 RMK A01 T00480002  RH  073%=      5-min Rain = 0
KAOS 170850Z 22006KT 05/00 A298 RMK A01 T00450001  RH  074%=      5-min Rain = 0
KAOS 170855Z 17005KT 04/M00 A2979 RMK A01 T00371004  RH  075%=      5-min Rain = 0
KAOS 170900Z 18005KT 03/M01 A2979 RMK A01 T00291006  RH  078%=      5-min Rain = 0
KAOS 170905Z 17006KT 03/M01 A2979 RMK A01 T00261006  RH  080%=      5-min Rain = 0
KAOS 170910Z 18006KT 02/M01 A2979 RMK A01 T00241005  RH  082%=      5-min Rain = 0
KAOS 170915Z 19006KT 02/M01 A2979 RMK A01 T00221006  RH  082%=      5-min Rain = 0
KAOS 170920Z 17005KT 02/M01 A2979 RMK A01 T00191009  RH  083%=      5-min Rain = 0
KAOS 170925Z 19006KT 02/M01 A2978 RMK A01 T00171009  RH  084%=      5-min Rain = 0
KAOS 170930Z 18006KT 02/M01 A2978 RMK A01 T00161009  RH  084%=      5-min Rain = 0
KAOS 170935Z 19006KT 01/M01 A2978 RMK A01 T00141010  RH  085%=      5-min Rain = 0
KAOS 170940Z 21008KT 01/M01 A2978 RMK A01 T00141008  RH  086%=      5-min Rain = 0
KAOS 170945Z 19007KT 01/M01 A2978 RMK A01 T00141010  RH  085%=      5-min Rain = 0
KAOS 170950Z 19007KT 01/M01 A2978 RMK A01 T00091014  RH  086%=      5-min Rain = 0
KAOS 170955Z 20007KT 01/M01 A2977 RMK A01 T00071012  RH  088%=      5-min Rain = 0
KAOS 171000Z 20007KT 01/M01 A2977 RMK A01 T00091009  RH  089%=      5-min Rain = 0
KAOS 171005Z 20006KT 01/M01 A2977 RMK A01 T00091010  RH  088%=      5-min Rain = 0
KAOS 171010Z 19005KT 01/M01 A2977 RMK A01 T00071011  RH  089%=      5-min Rain = 0
KAOS 171015Z 17003KT 01/M01 A2977 RMK A01 T00061012  RH  089%=      5-min Rain = 0
KAOS 171020Z 17003KT 01/M01 A2977 RMK A01 T00071011  RH  089%=      5-min Rain = 0
KAOS 171025Z 17004KT 01/M01 A2977 RMK A01 T00071011  RH  089%=      5-min Rain = 0
KAOS 171030Z 17005KT 01/M01 A2977 RMK A01 T00061012  RH  089%=      5-min Rain = 0
KAOS 171035Z 18007KT 01/M01 A2976 RMK A01 T00061011  RH  089%=      5-min Rain = 0
KAOS 171040Z 19007KT 01/M01 A2976 RMK A01 T00071010  RH  089%=      5-min Rain = 0
KAOS 171045Z 18006KT 00/M01 A2976 RMK A01 T00041014  RH  089%=      5-min Rain = 0
KAOS 171050Z 17006KT 00/M02 A2976 RMK A01 T00011015  RH  090%=      5-min Rain = 0
KAOS 171055Z 17006KT 00/M01 A2976 RMK A01 T00021013  RH  091%=      5-min Rain = 0
KAOS 171100Z 18007KT 00/M01 A2976 RMK A01 T00041010  RH  091%=      5-min Rain = 0
KAOS 171105Z 18007KT 01/M01 A2976 RMK A01 T00061008  RH  091%=      5-min Rain = 0
KAOS 171110Z 18007KT 01/M01 A2976 RMK A01 T00071008  RH  091%=      5-min Rain = 0
KAOS 171115Z 18007KT 01/M01 A2976 RMK A01 T00071007  RH  091%=      5-min Rain = 0
KAOS 171120Z 18008KT 01/M01 A2976 RMK A01 T00071008  RH  091%=      5-min Rain = 0
KAOS 171125Z 18008KT 01/M01 A2975 RMK A01 T00071007  RH  091%=      5-min Rain = 0
KAOS 171130Z 18008KT 01/M01 A2975 RMK A01 T00081006  RH  091%=      5-min Rain = 0
KAOS 171135Z 18008KT 01/M01 A2975 RMK A01 T00081006  RH  091%=      5-min Rain = 0
KAOS 171140Z 18008KT 01/M01 A2975 RMK A01 T00091005  RH  091%=      5-min Rain = 0
KAOS 171145Z 18008KT 01/M01 A2975 RMK A01 T00091005  RH  092%=      5-min Rain = 0
KAOS 171150Z 18008KT 01/M01 A2974 RMK A01 T00081006  RH  092%=      5-min Rain = 0
KAOS 171155Z 17008KT 01/M01 A2974 RMK A01 T00071006  RH  092%=      5-min Rain = 0
KAOS 171200Z 18008KT 01/M01 A2974 RMK A01 T00081005  RH  092%=      5-min Rain = 0
KAOS 171205Z 18007KT 01/M00 A2974 RMK A01 T00091004  RH  092%=      5-min Rain = 0
KAOS 171210Z 18007KT 01/M00 A2974 RMK A01 T00101003  RH  092%=      5-min Rain = 0
KAOS 171215Z 18007KT 01/M00 A2974 RMK A01 T00101003  RH  092%=      5-min Rain = 0
KAOS 171220Z 19007KT 01/M00 A2974 RMK A01 T00101004  RH  092%=      5-min Rain = 0
KAOS 171225Z 19008KT 01/M00 A2974 RMK A01 T00101003  RH  092%=      5-min Rain = 0
KAOS 171230Z 18008KT 01/M00 A2973 RMK A01 T00101003  RH  092%=      5-min Rain = 0
KAOS 171235Z 18008KT 01/M00 A2973 RMK A01 T00091004  RH  092%=      5-min Rain = 0
KAOS 171240Z 18007KT 01/M00 A2973 RMK A01 T00081004  RH  092%=      5-min Rain = 0
KAOS 171245Z 18008KT 01/M00 A2974 RMK A01 T00081004  RH  093%=      5-min Rain = 0
KAOS 171250Z 18008KT 01/M00 A2974 RMK A01 T00081004  RH  093%=      5-min Rain = 0
KAOS 171255Z 18008KT 01/M00 A2974 RMK A01 T00081003  RH  093%=      5-min Rain = 0
KAOS 171300Z 18008KT 01/M00 A2974 RMK A01 T00091003  RH  093%=      5-min Rain = 0
KAOS 171305Z 19009KT 01/M00 A2974 RMK A01 T00111002  RH  093%=      5-min Rain = 0
KAOS 171310Z 18009KT 01/M00 A2974 RMK A01 T00111002  RH  092%=      5-min Rain = 0
KAOS 171315Z 18009KT 01/M00 A2974 RMK A01 T00101002  RH  092%=      5-min Rain = 0
KAOS 171320Z 18009KT 01/M00 A2974 RMK A01 T00101002  RH  093%=      5-min Rain = 0
KAOS 171325Z 18009KT 01/M00 A2974 RMK A01 T00091003  RH  093%=      5-min Rain = 0
KAOS 171330Z 18008KT 01/M00 A2974 RMK A01 T00091002  RH  093%=      5-min Rain = 0
KAOS 171335Z 18008KT 01/M00 A2974 RMK A01 T00101002  RH  093%=      5-min Rain = 0
KAOS 171340Z 19009KT 01/M00 A2974 RMK A01 T00101002  RH  093%=      5-min Rain = 0
KAOS 171345Z 19010KT 01/M00 A2975 RMK A01 T00111001  RH  093%=      5-min Rain = 0
KAOS 171350Z 19010KT 01/M00 A2975 RMK A01 T00111001  RH  093%=      5-min Rain = 0
KAOS 171355Z 19010KT 01/00 A2974 RMK A01 T001200-0  RH  093%=      5-min Rain = 0
KAOS 171400Z 20011KT 01/00 A2975 RMK A01 T00130001  RH  093%=      5-min Rain = 0
KAOS 171405Z 20011KT 02/00 A2974 RMK A01 T00150003  RH  092%=      5-min Rain = 0
KAOS 171410Z 20011KT 02/00 A2974 RMK A01 T00180004  RH  092%=      5-min Rain = 0
KAOS 171415Z 20012KT 02/01 A2974 RMK A01 T00210006  RH  091%=      5-min Rain = 0
KAOS 171420Z 20011KT 03/01 A2974 RMK A01 T00250007  RH  090%=      5-min Rain = 0
KAOS 171425Z 20011KT 03/01 A2974 RMK A01 T00280008  RH  088%=      5-min Rain = 0
KAOS 171430Z 20011KT 03/01 A2974 RMK A01 T00310010  RH  087%=      5-min Rain = 0
KAOS 171435Z 20011KT 03/01 A2974 RMK A01 T00340011  RH  086%=      5-min Rain = 0
KAOS 171440Z 21011KT 04/01 A2974 RMK A01 T00380011  RH  084%=      5-min Rain = 0
KAOS 171445Z 21011KT 04/01 A2974 RMK A01 T00420013  RH  082%=      5-min Rain = 0
KAOS 171450Z 21011KT 05/01 A2974 RMK A01 T00470013  RH  080%=      5-min Rain = 0
KAOS 171455Z 21013KT 05/01 A2974 RMK A01 T00510012  RH  077%=      5-min Rain = 0
KAOS 171500Z 21013KT 05/01 A2974 RMK A01 T00540012  RH  076%=      5-min Rain = 0
KAOS 171505Z 21012KT 06/01 A2974 RMK A01 T00570013  RH  075%=      5-min Rain = 0
KAOS 171510Z 20012KT 06/02 A2974 RMK A01 T00600015  RH  074%=      5-min Rain = 0
KAOS 171515Z 21012KT 06/02 A2974 RMK A01 T00630015  RH  072%=      5-min Rain = 0
KAOS 171520Z 20011KT 07/02 A2974 RMK A01 T00670017  RH  071%=      5-min Rain = 0
KAOS 171525Z 21011KT 07/02 A2974 RMK A01 T00720017  RH  069%=      5-min Rain = 0
KAOS 171530Z 21013KT 08/02 A2974 RMK A01 T00760016  RH  067%=      5-min Rain = 0
KAOS 171535Z 21013KT 08/02 A2974 RMK A01 T00780016  RH  066%=      5-min Rain = 0
KAOS 171540Z 21012KT 08/02 A2974 RMK A01 T00820017  RH  064%=      5-min Rain = 0
KAOS 171545Z 21011KT 09/02 A2974 RMK A01 T00860018  RH  063%=      5-min Rain = 0
KAOS 171550Z 20011KT 09/02 A2974 RMK A01 T00900018  RH  062%=      5-min Rain = 0
KAOS 171555Z 20011KT 10/02 A2974 RMK A01 T00950019  RH  060%=      5-min Rain = 0
KAOS 171600Z 20011KT 10/02 A2974 RMK A01 T00980018  RH  058%=      5-min Rain = 0
KAOS 171605Z 21011KT 10/02 A2974 RMK A01 T01030018  RH  057%=      5-min Rain = 0
KAOS 171610Z 20010KT 11/02 A2973 RMK A01 T01090023  RH  056%=      5-min Rain = 0
KAOS 171615Z 20010KT 11/02 A2973 RMK A01 T01110023  RH  055%=      5-min Rain = 0
KAOS 171620Z 20011KT 11/02 A2973 RMK A01 T01140024  RH  055%=      5-min Rain = 0
KAOS 171625Z 20011KT 12/03 A2973 RMK A01 T01180025  RH  054%=      5-min Rain = 0
KAOS 171630Z 21011G16KT 12/02 A2973 RMK A01 T01230023  RH  051%=      5-min Rain = 0
KAOS 171635Z 21013KT 13/02 A2973 RMK A01 T01270021  RH  049%=      5-min Rain = 0
KAOS 171640Z 21012KT 13/02 A2973 RMK A01 T01270019  RH  048%=      5-min Rain = 0
KAOS 171645Z 21011KT 13/02 A2973 RMK A01 T01320024  RH  049%=      5-min Rain = 0
KAOS 171650Z 22012G17KT 14/02 A2973 RMK A01 T01370021  RH  046%=      5-min Rain = 0
KAOS 171655Z 21012KT 14/02 A2972 RMK A01 T01430021  RH  044%=      5-min Rain = 0
KAOS 171700Z 22012KT 15/02 A2972 RMK A01 T01450018  RH  043%=      5-min Rain = 0
KAOS 171705Z 23013G19KT 15/01 A2972 RMK A01 T01540013  RH  039%=      5-min Rain = 0
KAOS 171710Z 23014KT 16/01 A2971 RMK A01 T01590009  RH  037%=      5-min Rain = 0
KAOS 171715Z 24016G21KT 16/00 A2971 RMK A01 T01620003  RH  034%=      5-min Rain = 0
KAOS 171720Z 22015G20KT 17/00 A2971 RMK A01 T01660003  RH  034%=      5-min Rain = 0
KAOS 171725Z 23015G23KT 17/01 A2971 RMK A01 T01700005  RH  033%=      5-min Rain = 0
KAOS 171730Z 23017G23KT 17/00 A2971 RMK A01 T01710000  RH  032%=      5-min Rain = 0
KAOS 171735Z 22016KT 17/00 A2971 RMK A01 T017300-0  RH  031%=      5-min Rain = 0
KAOS 171740Z 23018KT 18/M01 A297 RMK A01 T01751005  RH  030%=      5-min Rain = 0
KAOS 171745Z 24017G22KT 18/M01 A297 RMK A01 T01751005  RH  030%=      5-min Rain = 0
KAOS 171750Z 23016G23KT 18/M01 A297 RMK A01 T01771006  RH  029%=      5-min Rain = 0
KAOS 171755Z 24017G22KT 18/M01 A297 RMK A01 T01751009  RH  029%=      5-min Rain = 0
KAOS 171800Z 23016G23KT 18/M01 A297 RMK A01 T01751008  RH  029%=      5-min Rain = 0
KAOS 171805Z 23018KT 18/M01 A297 RMK A01 T01791010  RH  028%=      5-min Rain = 0
KAOS 171810Z 24016G24KT 18/M01 A2969 RMK A01 T01781010  RH  028%=      5-min Rain = 0
KAOS 171815Z 24016G21KT 18/M01 A2969 RMK A01 T01771010  RH  028%=      5-min Rain = 0
KAOS 171820Z 22016G22KT 18/M01 A297 RMK A01 T01801011  RH  027%=      5-min Rain = 0
KAOS 171825Z 23017G22KT 18/M01 A2969 RMK A01 T01811012  RH  027%=      5-min Rain = 0
KAOS 171830Z 23016G21KT 18/M01 A2969 RMK A01 T01831012  RH  027%=      5-min Rain = 0
KAOS 171835Z 24016KT 18/M01 A2969 RMK A01 T01821014  RH  027%=      5-min Rain = 0
KAOS 171840Z 23017G24KT 18/M01 A2968 RMK A01 T01831013  RH  027%=      5-min Rain = 0
KAOS 171845Z 22016G25KT 19/M01 A2968 RMK A01 T01891012  RH  026%=      5-min Rain = 0
KAOS 171850Z 22018G25KT 19/M01 A2968 RMK A01 T01891014  RH  026%=      5-min Rain = 0
KAOS 171855Z 22016G21KT 19/M01 A2967 RMK A01 T01901014  RH  025%=      5-min Rain = 0
KAOS 171900Z 22015G22KT 19/M02 A2967 RMK A01 T01911017  RH  025%=      5-min Rain = 0
KAOS 171905Z 22016G22KT 19/M02 A2966 RMK A01 T01921018  RH  024%=      5-min Rain = 0
KAOS 171910Z 22018KT 19/M02 A2966 RMK A01 T01931019  RH  024%=      5-min Rain = 0
KAOS 171915Z 23019G24KT 19/M02 A2966 RMK A01 T01931017  RH  024%=      5-min Rain = 0
KAOS 171920Z 23016G23KT 19/M02 A2966 RMK A01 T01911018  RH  024%=      5-min Rain = 0
KAOS 171925Z 23016G25KT 19/M02 A2966 RMK A01 T01921015  RH  025%=      5-min Rain = 0
KAOS 171930Z 24018G23KT 19/M01 A2965 RMK A01 T01931014  RH  025%=      5-min Rain = 0
KAOS 171935Z 24019G26KT 19/M02 A2965 RMK A01 T01931015  RH  025%=      5-min Rain = 0
KAOS 171940Z 23018G23KT 19/M02 A2965 RMK A01 T01931018  RH  024%=      5-min Rain = 0
KAOS 171945Z 24016G21KT 19/M02 A2965 RMK A01 T01941018  RH  024%=      5-min Rain = 0
KAOS 171950Z 24018G25KT 20/M02 A2964 RMK A01 T01971017  RH  024%=      5-min Rain = 0
KAOS 171955Z 24015KT 20/M01 A2964 RMK A01 T02011012  RH  024%=      5-min Rain = 0
KAOS 172000Z 22016G24KT 20/M02 A2964 RMK A01 T02031016  RH  023%=      5-min Rain = 0
KAOS 172005Z 24019G31KT 20/M02 A2963 RMK A01 T02031019  RH  022%=      5-min Rain = 0
KAOS 172010Z 24017G22KT 20/M02 A2963 RMK A01 T02041021  RH  022%=      5-min Rain = 0
KAOS 172015Z 23017G23KT 21/M02 A2962 RMK A01 T02071018  RH  022%=      5-min Rain = 0
KAOS 172020Z 24018G26KT 21/M02 A2962 RMK A01 T02111018  RH  021%=      5-min Rain = 0
KAOS 172025Z 23021G27KT 21/M02 A2962 RMK A01 T02121023  RH  021%=      5-min Rain = 0
KAOS 172030Z 22019G25KT 21/M03 A2962 RMK A01 T02131025  RH  020%=      5-min Rain = 0
KAOS 172035Z 24018G25KT 21/M02 A2962 RMK A01 T02141024  RH  020%=      5-min Rain = 0
KAOS 172040Z 23019G25KT 22/M02 A2961 RMK A01 T02161024  RH  020%=      5-min Rain = 0
KAOS 172045Z 23017G26KT 22/M03 A2961 RMK A01 T02191025  RH  020%=      5-min Rain = 0
KAOS 172050Z 24019G27KT 22/M03 A2961 RMK A01 T02181026  RH  019%=      5-min Rain = 0
KAOS 172055Z 24017G24KT 22/M03 A2961 RMK A01 T02171025  RH  020%=      5-min Rain = 0
KAOS 172100Z 23018KT 22/M03 A2961 RMK A01 T02181026  RH  019%=      5-min Rain = 0
KAOS 172105Z 24016G21KT 22/M03 A2961 RMK A01 T02211029  RH  019%=      5-min Rain = 0
KAOS 172110Z 24017G23KT 22/M03 A296 RMK A01 T02191031  RH  019%=      5-min Rain = 0
KAOS 172115Z 24018G23KT 22/M03 A296 RMK A01 T02211026  RH  019%=      5-min Rain = 0
KAOS 172120Z 24015G20KT 22/M03 A296 RMK A01 T02231026  RH  019%=      5-min Rain = 0
KAOS 172125Z 23014KT 22/M03 A296 RMK A01 T02231027  RH  019%=      5-min Rain = 0
KAOS 172130Z 24015G21KT 22/M03 A296 RMK A01 T02231026  RH  019%=      5-min Rain = 0
KAOS 172135Z 24017G23KT 22/M03 A2959 RMK A01 T02231025  RH  019%=      5-min Rain = 0
KAOS 172140Z 23013G20KT 22/M02 A2959 RMK A01 T02241024  RH  019%=      5-min Rain = 0
KAOS 172145Z 23015G21KT 23/M02 A2959 RMK A01 T02261021  RH  019%=      5-min Rain = 0
KAOS 172150Z 23014KT 23/M02 A2959 RMK A01 T02271022  RH  019%=      5-min Rain = 0
KAOS 172155Z 22014KT 23/M02 A2959 RMK A01 T02271023  RH  019%=      5-min Rain = 0
KAOS 172200Z 24014KT 23/M03 A2959 RMK A01 T02291025  RH  018%=      5-min Rain = 0
KAOS 172205Z 26015G21KT 23/M04 A2959 RMK A01 T02291041  RH  016%=      5-min Rain = 0
KAOS 172210Z 28015KT 23/M05 A2959 RMK A01 T02291052  RH  015%=      5-min Rain = 0
KAOS 172215Z 27013G18KT 23/M06 A2959 RMK A01 T02271057  RH  015%=      5-min Rain = 0
KAOS 172220Z 27013KT 23/M06 A2959 RMK A01 T02271059  RH  014%=      5-min Rain = 0
KAOS 172225Z 26012KT 23/M06 A2959 RMK A01 T02281061  RH  014%=      5-min Rain = 0
KAOS 172230Z 27013KT 23/M06 A2959 RMK A01 T02271062  RH  014%=      5-min Rain = 0
KAOS 172235Z 28012G17KT 23/M07 A2959 RMK A01 T02261065  RH  014%=      5-min Rain = 0
KAOS 172240Z 27010KT 23/M07 A2959 RMK A01 T02251068  RH  013%=      5-min Rain = 0
KAOS 172245Z 27008G13KT 23/M06 A2959 RMK A01 T02261064  RH  014%=      5-min Rain = 0
KAOS 172250Z 29010KT 23/M06 A2959 RMK A01 T02261056  RH  015%=      5-min Rain = 0
KAOS 172255Z 29009KT 23/M06 A2959 RMK A01 T02251059  RH  015%=      5-min Rain = 0
KAOS 172300Z 30011KT 23/M05 A2959 RMK A01 T02251052  RH  015%=      5-min Rain = 0
KAOS 172305Z 30011KT 22/M05 A2959 RMK A01 T02231054  RH  015%=      5-min Rain = 0
KAOS 172310Z 30010KT 22/M06 A296 RMK A01 T02221055  RH  015%=      5-min Rain = 0
KAOS 172315Z 31011KT 22/M05 A296 RMK A01 T02211049  RH  016%=      5-min Rain = 0
KAOS 172320Z 30007G12KT 22/M05 A296 RMK A01 T02211049  RH  016%=      5-min Rain = 0
KAOS 172325Z 31009KT 22/M05 A296 RMK A01 T02201046  RH  016%=      5-min Rain = 0
KAOS 172330Z 31008KT 22/M05 A296 RMK A01 T02191049  RH  016%=      5-min Rain = 0
KAOS 172335Z 32007KT 22/M05 A296 RMK A01 T02181046  RH  017%=      5-min Rain = 0
KAOS 172340Z 31008KT 22/M05 A296 RMK A01 T02171048  RH  017%=      5-min Rain = 0
KAOS 172345Z 31008KT 22/M05 A296 RMK A01 T02151045  RH  017%=      5-min Rain = 0
KAOS 172350Z 32006KT 21/M04 A296 RMK A01 T02131041  RH  018%=      5-min Rain = 0
KAOS 172355Z 32005KT 21/M04 A296 RMK A01 T02091041  RH  018%=      5-min Rain = 0
KAOS 180000Z 32005KT 20/M04 A296 RMK A01 T02041038  RH  019%=      5-min Rain = 0
KAOS 180005Z 32005KT 20/M04 A296 RMK A01 T01991037  RH  020%=      5-min Rain = 0
KAOS 180010Z 32005KT 19/M04 A2961 RMK A01 T01931037  RH  021%=      5-min Rain = 0
KAOS 180015Z 33005KT 19/M03 A2961 RMK A01 T01881034  RH  022%=      5-min Rain = 0
KAOS 180020Z 34006KT 18/M03 A2961 RMK A01 T01811027  RH  024%=      5-min Rain = 0
KAOS 180025Z 35007KT 17/M03 A2961 RMK A01 T01711025  RH  026%=      5-min Rain = 0
KAOS 180030Z 00007KT 16/M02 A2961 RMK A01 T01641022  RH  028%=      5-min Rain = 0
KAOS 180035Z 00007KT 16/M02 A2961 RMK A01 T01591022  RH  029%=      5-min Rain = 0
KAOS 180040Z 36009KT 15/M02 A2962 RMK A01 T01531022  RH  030%=      5-min Rain = 0
KAOS 180045Z 01008KT 15/M02 A2962 RMK A01 T01521024  RH  030%=      5-min Rain = 0
KAOS 180050Z 00008KT 15/M02 A2962 RMK A01 T01481022  RH  031%=      5-min Rain = 0
KAOS 180055Z 00008KT 14/M02 A2962 RMK A01 T01421018  RH  033%=      5-min Rain = 0
KAOS 180100Z 00008KT 14/M02 A2963 RMK A01 T01381019  RH  034%=      5-min Rain = 0
KAOS 180105Z 36008KT 14/M02 A2963 RMK A01 T01361018  RH  035%=      5-min Rain = 0
KAOS 180110Z 35007KT 14/M02 A2963 RMK A01 T01371019  RH  034%=      5-min Rain = 0
KAOS 180115Z 34007KT 14/M02 A2963 RMK A01 T01391023  RH  033%=      5-min Rain = 0
KAOS 180120Z 33008KT 13/M02 A2964 RMK A01 T01281017  RH  037%=      5-min Rain = 0
KAOS 180125Z 33009KT 12/M01 A2964 RMK A01 T01231009  RH  040%=      5-min Rain = 0
KAOS 180130Z 34009KT 12/M01 A2964 RMK A01 T01221006  RH  041%=      5-min Rain = 0
KAOS 180135Z 35009KT 12/M01 A2965 RMK A01 T01171005  RH  043%=      5-min Rain = 0
KAOS 180140Z 34008KT 11/M00 A2965 RMK A01 T01121001  RH  046%=      5-min Rain = 0
KAOS 180145Z 34007KT 11/M00 A2965 RMK A01 T01081002  RH  047%=      5-min Rain = 0
KAOS 180150Z 35008KT 10/M00 A2965 RMK A01 T01041001  RH  049%=      5-min Rain = 0
KAOS 180155Z 35008KT 10/00 A2965 RMK A01 T01020001  RH  050%=      5-min Rain = 0
KAOS 180200Z 34008KT 10/M00 A2965 RMK A01 T01001001  RH  050%=      5-min Rain = 0
KAOS 180205Z 34009KT 09/00 A2965 RMK A01 T00940001  RH  053%=      5-min Rain = 0
KAOS 180210Z 35009KT 10/00 A2965 RMK A01 T00950003  RH  053%=      5-min Rain = 0
KAOS 180215Z 35008KT 10/00 A2965 RMK A01 T00950003  RH  053%=      5-min Rain = 0
KAOS 180220Z 33007KT 09/M00 A2966 RMK A01 T00941001  RH  052%=      5-min Rain = 0
KAOS 180225Z 33007KT 09/M00 A2966 RMK A01 T00881002  RH  054%=      5-min Rain = 0
KAOS 180230Z 31007KT 09/M00 A2966 RMK A01 T00851003  RH  054%=      5-min Rain = 0
KAOS 180235Z 31007KT 08/M00 A2966 RMK A01 T00801003  RH  056%=      5-min Rain = 0
KAOS 180240Z 31008KT 08/M00 A2966 RMK A01 T00781003  RH  057%=      5-min Rain = 0
KAOS 180245Z 32008KT 08/M00 A2967 RMK A01 T00801003  RH  057%=      5-min Rain = 0
KAOS 180250Z 31008KT 08/M00 A2967 RMK A01 T00781002  RH  058%=      5-min Rain = 0
KAOS 180255Z 30008KT 08/M00 A2967 RMK A01 T00771002  RH  058%=      5-min Rain = 0
KAOS 180300Z 26009KT 07/00 A2968 RMK A01 T00740001  RH  060%=      5-min Rain = 0
KAOS 180305Z 27009KT 08/00 A2968 RMK A01 T00770003  RH  060%=      5-min Rain = 0
KAOS 180310Z 25009KT 08/00 A2968 RMK A01 T00810004  RH  059%=      5-min Rain = 0
KAOS 180315Z 25008KT 08/00 A2968 RMK A01 T00800003  RH  059%=      5-min Rain = 0
KAOS 180320Z 25010KT 08/00 A2968 RMK A01 T00820003  RH  058%=      5-min Rain = 0
KAOS 180325Z 26008KT 08/00 A2968 RMK A01 T00840003  RH  057%=      5-min Rain = 0
KAOS 180330Z 28008KT 08/00 A2968 RMK A01 T00830003  RH  058%=      5-min Rain = 0
KAOS 180335Z 29010KT 08/00 A2968 RMK A01 T00800003  RH  059%=      5-min Rain = 0
KAOS 180340Z 29011KT 08/00 A2968 RMK A01 T00800003  RH  059%=      5-min Rain = 0
KAOS 180345Z 29010KT 08/00 A2968 RMK A01 T00790003  RH  059%=      5-min Rain = 0
KAOS 180350Z 30009KT 08/00 A2969 RMK A01 T00770003  RH  060%=      5-min Rain = 0
KAOS 180355Z 29010KT 08/00 A2969 RMK A01 T00750003  RH  061%=      5-min Rain = 0
KAOS 180400Z 30011KT 08/00 A2968 RMK A01 T00750003  RH  061%=      5-min Rain = 0
KAOS 180405Z 29010KT 07/00 A2969 RMK A01 T00740002  RH  061%=      5-min Rain = 0
KAOS 180410Z 30010KT 07/00 A2969 RMK A01 T00690002  RH  063%=      5-min Rain = 0
KAOS 180415Z 31008KT 07/00 A2969 RMK A01 T00700002  RH  063%=      5-min Rain = 0
KAOS 180420Z 25008KT 07/00 A297 RMK A01 T00680001  RH  063%=      5-min Rain = 0
KAOS 180425Z 26008KT 07/00 A297 RMK A01 T00670000  RH  063%=      5-min Rain = 0
KAOS 180430Z 27007KT 06/00 A297 RMK A01 T006400-0  RH  064%=      5-min Rain = 0
KAOS 180435Z 27009KT 06/00 A297 RMK A01 T00640000  RH  064%=      5-min Rain = 0
KAOS 180440Z 27009KT 06/M00 A297 RMK A01 T00641001  RH  064%=      5-min Rain = 0
KAOS 180445Z 27010KT 07/M00 A2971 RMK A01 T00661002  RH  063%=      5-min Rain = 0
KAOS 180450Z 27009KT 07/M00 A2971 RMK A01 T00671003  RH  062%=      5-min Rain = 0
KAOS 180455Z 27010KT 07/M00 A2971 RMK A01 T00681004  RH  061%=      5-min Rain = 0
KAOS 180500Z 27010KT 07/M01 A2971 RMK A01 T00681005  RH  060%=      5-min Rain = 0
KAOS 180505Z 27010KT 07/M01 A2971 RMK A01 T00661006  RH  061%=      5-min Rain = 0
KAOS 180510Z 28010KT 06/M01 A2971 RMK A01 T00641006  RH  062%=      5-min Rain = 0
KAOS 180515Z 27010KT 06/M01 A2971 RMK A01 T00631007  RH  062%=      5-min Rain = 0
KAOS 180520Z 27010KT 06/M01 A2971 RMK A01 T00631007  RH  061%=      5-min Rain = 0
KAOS 180525Z 28010KT 06/M01 A2971 RMK A01 T00611006  RH  062%=      5-min Rain = 0
KAOS 180530Z 28011KT 06/M01 A297 RMK A01 T00611007  RH  062%=      5-min Rain = 0
KAOS 180535Z 28012KT 06/M01 A297 RMK A01 T00611007  RH  062%=      5-min Rain = 0
KAOS 180540Z 28011KT 06/M01 A297 RMK A01 T00621007  RH  062%=      5-min Rain = 0
KAOS 180545Z 27008KT 06/M01 A2971 RMK A01 T00601006  RH  063%=      5-min Rain = 0
KAOS 180550Z 31009KT 06/M01 A2971 RMK A01 T00551005  RH  066%=      5-min Rain = 0
KAOS 180555Z 31010KT 05/M01 A2971 RMK A01 T00541005  RH  066%=      5-min Rain = 0

Page generated in 0.0326 seconds.